createdAt,value
2018-05-19T00:02:03.288Z,"    0"
2018-05-19T00:06:59.094Z,"    0"
2018-05-19T00:11:54.888Z,"    0"
2018-05-19T00:16:50.734Z,"    0"
2018-05-19T00:21:46.548Z,"    0"
2018-05-19T00:26:42.588Z,"    0"
2018-05-19T00:31:38.303Z,"    0"
2018-05-19T00:36:34.335Z,"    0"
2018-05-19T00:41:29.871Z,"    0"
2018-05-19T00:46:25.678Z,"    0"
2018-05-19T00:51:21.370Z,"    0"
2018-05-19T00:56:18.531Z,"    0"
2018-05-19T01:01:14.928Z,"    0"
2018-05-19T01:06:10.944Z,"    0"
2018-05-19T01:11:08.375Z,"    0"
2018-05-19T01:16:03.748Z,"    0"
2018-05-19T01:20:59.520Z,"    0"
2018-05-19T01:25:55.295Z,"    0"
2018-05-19T01:30:51.889Z,"    0"
2018-05-19T01:35:47.574Z,"    0"
2018-05-19T01:40:44.349Z,"    0"
2018-05-19T01:45:39.863Z,"    0"
2018-05-19T01:50:35.675Z,"    0"
2018-05-19T01:55:31.109Z,"    0"
2018-05-19T02:00:27.005Z,"    0"
2018-05-19T02:05:23.048Z,"    0"
2018-05-19T02:10:21.127Z,"    0"
2018-05-19T02:15:16.320Z,"    0"
2018-05-19T02:20:12.081Z,"    0"
2018-05-19T02:25:07.999Z,"    0"
2018-05-19T02:30:04.671Z,"    0"
2018-05-19T02:35:00.075Z,"    0"
2018-05-19T02:39:56.275Z,"    0"
2018-05-19T02:44:51.827Z,"    0"
2018-05-19T02:49:48.804Z,"    0"
2018-05-19T02:54:44.126Z,"    0"
2018-05-19T02:59:40.567Z,"    4"
2018-05-19T03:04:36.483Z,"    8"
2018-05-19T03:09:32.240Z,"   12"
2018-05-19T03:14:29.077Z,"   28"
2018-05-19T03:19:24.756Z,"   44"
2018-05-19T03:24:21.495Z,"   68"
2018-05-19T03:29:17.026Z,"  100"
2018-05-19T03:34:12.690Z,"  148"
2018-05-19T03:39:08.456Z,"  204"
2018-05-19T03:44:04.649Z,"  272"
2018-05-19T03:49:00.524Z,"  356"
2018-05-19T03:53:56.416Z,"  464"
2018-05-19T03:58:52.209Z,"  568"
2018-05-19T04:03:48.390Z,"  628"
2018-05-19T04:08:43.826Z,"  728"
2018-05-19T04:13:40.550Z,"  844"
2018-05-19T04:18:35.981Z,"  928"
2018-05-19T04:23:31.244Z," 1080"
2018-05-19T04:28:27.173Z," 1244"
2018-05-19T04:33:23.046Z," 1492"
2018-05-19T04:38:18.902Z," 1608"
2018-05-19T04:43:14.748Z," 1856"
2018-05-19T04:48:10.573Z," 2200"
2018-05-19T04:53:07.499Z," 2316"
2018-05-19T04:58:03.356Z," 2956"
2018-05-19T05:02:59.320Z," 3132"
2018-05-19T05:07:55.065Z," 3784"
2018-05-19T05:12:51.994Z," 4392"
2018-05-19T05:17:48.490Z," 4956"
2018-05-19T05:22:45.439Z," 5048"
2018-05-19T05:27:41.073Z," 5076"
2018-05-19T05:32:37.172Z," 6204"
2018-05-19T05:37:34.183Z," 6420"
2018-05-19T05:42:30.340Z," 6604"
2018-05-19T05:47:26.333Z," 7288"
2018-05-19T05:52:23.319Z," 7128"
2018-05-19T05:57:19.122Z," 7120"
2018-05-19T06:02:15.289Z," 8028"
2018-05-19T06:07:11.725Z," 8264"
2018-05-19T06:12:08.873Z,10008
2018-05-19T06:17:04.842Z,11392
2018-05-19T06:22:02.271Z,12124
2018-05-19T06:26:59.158Z,11540
2018-05-19T06:31:55.077Z,10156
2018-05-19T06:36:50.886Z," 9240"
2018-05-19T06:41:46.461Z,10684
2018-05-19T06:46:43.321Z,11128
2018-05-19T06:51:39.342Z,12932
2018-05-19T06:56:36.712Z,11548
2018-05-19T07:01:32.032Z,11196
2018-05-19T07:06:27.783Z,12892
2018-05-19T07:11:23.687Z,13232
2018-05-19T07:16:19.768Z,13736
2018-05-19T07:21:16.098Z,14000
2018-05-19T07:26:12.404Z,13568
2018-05-19T07:31:08.425Z,13908
2018-05-19T07:36:05.492Z,13744
2018-05-19T07:41:00.905Z,14868
2018-05-19T07:45:57.136Z,19552
2018-05-19T07:50:54.446Z,22976
2018-05-19T07:55:50.301Z,17632
2018-05-19T08:00:46.414Z,16416
2018-05-19T08:05:42.061Z,10124
2018-05-19T08:10:37.417Z," 9192"
2018-05-19T08:15:32.735Z,12904
2018-05-19T08:20:28.604Z,11848
2018-05-19T08:25:25.624Z,25952
2018-05-19T08:30:22.161Z,53472
2018-05-19T08:35:21.252Z,22720
2018-05-19T08:40:18.990Z,21856
2018-05-19T08:45:14.899Z,58176
2018-05-19T08:50:12.806Z,47328
2018-05-19T08:55:10.269Z,60288
2018-05-19T09:00:08.224Z,53440
2018-05-19T09:05:04.925Z,56128
2018-05-19T09:09:59.779Z,46880
2018-05-19T09:14:55.907Z,29632
2018-05-19T09:19:52.362Z,24384
2018-05-19T09:24:49.346Z,60608
2018-05-19T09:29:47.458Z,59424
2018-05-19T09:34:44.041Z,65792
2018-05-19T09:39:40.656Z,70880
2018-05-19T09:44:37.503Z,74400
2018-05-19T09:49:31.160Z,40512
2018-05-19T09:54:26.431Z,71200
2018-05-19T09:59:24.314Z,78656
2018-05-19T10:04:20.826Z,73024
2018-05-19T10:09:17.574Z,28128
2018-05-19T10:14:12.144Z,56800
2018-05-19T10:19:08.895Z,31872
2018-05-19T10:24:02.683Z,19936
2018-05-19T10:28:58.877Z,23008
2018-05-19T10:33:54.467Z,20160
2018-05-19T10:38:50.348Z,19264
2018-05-19T10:43:45.323Z,16992
2018-05-19T10:48:40.477Z,11556
2018-05-19T10:53:36.164Z,12268
2018-05-19T10:58:32.139Z,22336
2018-05-19T11:03:28.077Z,12360
2018-05-19T11:08:23.091Z,12036
2018-05-19T11:13:19.999Z,11752
2018-05-19T11:18:15.487Z,14228
2018-05-19T11:23:12.243Z,38912
2018-05-19T11:28:11.266Z,22176
2018-05-19T11:33:06.307Z,20896
2018-05-19T11:38:01.976Z,45920
2018-05-19T11:43:00.538Z,13748
2018-05-19T11:47:56.124Z,63456
2018-05-19T11:52:52.992Z,11104
2018-05-19T11:57:47.462Z,11484
2018-05-19T12:02:42.541Z,14580
2018-05-19T12:07:38.513Z,13668
2018-05-19T12:12:34.706Z,14028
2018-05-19T12:17:31.045Z,18624
2018-05-19T12:22:27.034Z,62560
2018-05-19T12:27:26.981Z,90240
2018-05-19T12:32:25.544Z,100256
2018-05-19T12:37:23.084Z,78848
2018-05-19T12:42:20.134Z,71872
2018-05-19T12:47:17.949Z,19648
2018-05-19T12:52:10.507Z,29312
2018-05-19T12:57:04.993Z,85664
2018-05-19T13:02:01.674Z,83328
2018-05-19T13:06:57.642Z,88544
2018-05-19T13:11:53.745Z,62432
2018-05-19T13:16:49.482Z,54496
2018-05-19T13:21:43.546Z," 9816"
2018-05-19T13:26:38.043Z,13780
2018-05-19T13:31:34.191Z,11320
2018-05-19T13:36:29.553Z,59264
2018-05-19T13:41:26.044Z,67904
2018-05-19T13:46:23.862Z,45664
2018-05-19T13:51:21.069Z,53568
2018-05-19T13:56:18.236Z,16640
2018-05-19T14:01:14.287Z,12824
2018-05-19T14:06:09.738Z,10892
2018-05-19T14:11:06.423Z," 9220"
2018-05-19T14:16:01.841Z," 7828"
2018-05-19T14:20:56.902Z," 6276"
2018-05-19T14:25:52.138Z," 5956"
2018-05-19T14:30:48.517Z," 5648"
2018-05-19T14:35:43.714Z," 5968"
2018-05-19T14:40:39.239Z," 6160"
2018-05-19T14:45:34.779Z," 6164"
2018-05-19T14:50:31.590Z," 6384"
2018-05-19T14:55:27.322Z," 7620"
2018-05-19T15:00:23.272Z," 8836"
2018-05-19T15:05:19.675Z," 9580"
2018-05-19T15:10:16.398Z," 8336"
2018-05-19T15:15:12.167Z," 6768"
2018-05-19T15:20:08.095Z," 6876"
2018-05-19T15:25:03.899Z," 5828"
2018-05-19T15:29:59.556Z," 5740"
2018-05-19T15:34:55.180Z," 5844"
2018-05-19T15:39:50.901Z," 6092"
2018-05-19T15:44:47.030Z," 6604"
2018-05-19T15:49:42.935Z," 6052"
2018-05-19T15:54:38.641Z," 4796"
2018-05-19T15:59:34.747Z," 4472"
2018-05-19T16:04:30.292Z," 4112"
2018-05-19T16:09:27.170Z," 3804"
2018-05-19T16:14:22.798Z," 3820"
2018-05-19T16:19:18.700Z," 3464"
2018-05-19T16:24:14.058Z," 3668"
2018-05-19T16:29:10.103Z," 3204"
2018-05-19T16:34:06.376Z," 2908"
2018-05-19T16:39:03.097Z," 2816"
2018-05-19T16:43:59.189Z," 2816"
2018-05-19T16:48:54.909Z," 2672"
2018-05-19T16:53:50.633Z," 2592"
2018-05-19T16:58:46.333Z," 2476"
2018-05-19T17:03:41.908Z," 2652"
2018-05-19T17:08:38.148Z," 2776"
2018-05-19T17:13:35.289Z," 3088"
2018-05-19T17:18:30.910Z," 3400"
2018-05-19T17:23:27.870Z," 3544"
2018-05-19T17:28:24.914Z," 3744"
2018-05-19T17:33:21.619Z," 3576"
2018-05-19T17:38:17.216Z," 3164"
2018-05-19T17:43:13.144Z," 2924"
2018-05-19T17:48:09.048Z," 2264"
2018-05-19T17:53:04.866Z," 1968"
2018-05-19T17:58:00.432Z," 1680"
2018-05-19T18:02:56.400Z," 1412"
2018-05-19T18:07:51.941Z," 1244"
2018-05-19T18:12:48.693Z," 1184"
2018-05-19T18:17:43.968Z," 1164"
2018-05-19T18:22:39.640Z," 1120"
2018-05-19T18:27:35.423Z,"  956"
2018-05-19T18:32:30.971Z,"  892"
2018-05-19T18:37:26.659Z,"  856"
2018-05-19T18:42:22.291Z,"  740"
2018-05-19T18:47:17.828Z,"  636"
2018-05-19T18:52:13.633Z,"  540"
2018-05-19T18:57:09.145Z,"  456"
2018-05-19T19:02:04.923Z,"  368"
2018-05-19T19:07:00.477Z,"  296"
2018-05-19T19:11:56.403Z,"  224"
2018-05-19T19:16:52.223Z,"  168"
2018-05-19T19:21:48.932Z,"  120"
2018-05-19T19:26:45.478Z,"   80"
2018-05-19T19:31:41.106Z,"   48"
2018-05-19T19:36:38.530Z,"   28"
2018-05-19T19:41:34.005Z,"   16"
2018-05-19T19:46:29.534Z,"    8"
2018-05-19T19:51:25.412Z,"    4"
2018-05-19T19:56:21.503Z,"    4"
2018-05-19T20:01:17.227Z,"    0"
2018-05-19T20:06:13.042Z,"    0"
2018-05-19T20:11:09.692Z,"    0"
2018-05-19T20:16:05.161Z,"    0"
2018-05-19T20:21:00.841Z,"    0"
2018-05-19T20:25:56.869Z,"    0"
2018-05-19T20:30:53.623Z,"    0"
2018-05-19T20:35:49.270Z,"    0"
2018-05-19T20:40:46.353Z,"    0"
2018-05-19T20:45:41.820Z,"    0"
2018-05-19T20:50:37.664Z,"    0"
2018-05-19T20:55:33.149Z,"    0"
2018-05-19T21:00:29.047Z,"    0"
2018-05-19T21:05:25.560Z,"    0"
2018-05-19T21:10:21.172Z,"    0"
2018-05-19T21:15:17.301Z,"    0"
2018-05-19T21:20:12.980Z,"    0"
2018-05-19T21:25:08.752Z,"    0"
2018-05-19T21:30:04.772Z,"    0"
2018-05-19T21:35:00.338Z,"    0"
2018-05-19T21:39:55.918Z,"    0"
2018-05-19T21:44:51.835Z,"    0"
2018-05-19T21:49:47.185Z,"    0"
2018-05-19T21:54:43.149Z,"    0"
2018-05-19T21:59:39.254Z,"    0"
2018-05-19T22:04:36.024Z,"    0"
2018-05-19T22:09:31.579Z,"    0"
2018-05-19T22:14:27.437Z,"    0"
2018-05-19T22:19:24.386Z,"    0"
2018-05-19T22:24:19.877Z,"    0"
2018-05-19T22:29:15.505Z,"    0"
2018-05-19T22:34:11.332Z,"    0"
2018-05-19T22:39:07.145Z,"    0"
2018-05-19T22:44:03.774Z,"    0"
2018-05-19T22:49:00.270Z,"    0"
2018-05-19T22:53:55.832Z,"    0"
2018-05-19T22:58:51.717Z,"    0"
2018-05-19T23:03:47.298Z,"    0"
2018-05-19T23:08:43.940Z,"    0"
2018-05-19T23:13:39.367Z,"    0"
2018-05-19T23:18:34.901Z,"    0"
2018-05-19T23:23:32.027Z,"    0"
2018-05-19T23:28:27.613Z,"    0"
2018-05-19T23:33:24.437Z,"    0"
2018-05-19T23:38:19.724Z,"    0"
2018-05-19T23:43:15.597Z,"    0"
2018-05-19T23:48:11.190Z,"    0"
2018-05-19T23:53:06.949Z,"    0"
2018-05-19T23:58:02.648Z,"    0"
